sensor_id;sensor_type;location;lat;lon;timestamp;temperature;humidity
11122;DHT22;5615;49.304;10.576;2022-10-31T00:00:31;9.60;99.90
11122;DHT22;5615;49.304;10.576;2022-10-31T00:02:57;9.40;99.90
11122;DHT22;5615;49.304;10.576;2022-10-31T00:05:24;9.30;99.90
11122;DHT22;5615;49.304;10.576;2022-10-31T00:07:52;9.30;99.90
11122;DHT22;5615;49.304;10.576;2022-10-31T00:10:18;9.20;99.90
11122;DHT22;5615;49.304;10.576;2022-10-31T00:12:45;9.00;99.90
11122;DHT22;5615;49.304;10.576;2022-10-31T00:15:12;8.80;99.90
11122;DHT22;5615;49.304;10.576;2022-10-31T00:17:40;8.60;99.90
11122;DHT22;5615;49.304;10.576;2022-10-31T00:20:07;8.40;99.90
11122;DHT22;5615;49.304;10.576;2022-10-31T00:22:34;8.30;99.90
11122;DHT22;5615;49.304;10.576;2022-10-31T00:25:01;8.20;99.90
11122;DHT22;5615;49.304;10.576;2022-10-31T00:27:27;8.20;99.90
11122;DHT22;5615;49.304;10.576;2022-10-31T00:29:54;8.20;99.90
11122;DHT22;5615;49.304;10.576;2022-10-31T00:32:21;8.30;99.90
11122;DHT22;5615;49.304;10.576;2022-10-31T00:34:49;8.20;99.90
11122;DHT22;5615;49.304;10.576;2022-10-31T00:37:15;8.10;99.90
11122;DHT22;5615;49.304;10.576;2022-10-31T00:39:42;8.10;99.90
11122;DHT22;5615;49.304;10.576;2022-10-31T00:42:10;8.10;99.90
11122;DHT22;5615;49.304;10.576;2022-10-31T00:44:37;8.10;99.90
11122;DHT22;5615;49.304;10.576;2022-10-31T00:47:03;8.40;99.90
11122;DHT22;5615;49.304;10.576;2022-10-31T00:49:30;8.50;99.90
11122;DHT22;5615;49.304;10.576;2022-10-31T00:51:58;8.60;99.90
11122;DHT22;5615;49.304;10.576;2022-10-31T00:54:25;8.60;99.90
11122;DHT22;5615;49.304;10.576;2022-10-31T00:56:51;8.50;99.90
11122;DHT22;5615;49.304;10.576;2022-10-31T00:59:18;8.50;99.90
11122;DHT22;5615;49.304;10.576;2022-10-31T01:01:44;8.50;99.90
11122;DHT22;5615;49.304;10.576;2022-10-31T01:04:11;8.60;99.90
11122;DHT22;5615;49.304;10.576;2022-10-31T01:06:38;8.50;99.90
11122;DHT22;5615;49.304;10.576;2022-10-31T01:09:06;8.40;99.90
11122;DHT22;5615;49.304;10.576;2022-10-31T01:11:32;8.30;99.90
11122;DHT22;5615;49.304;10.576;2022-10-31T01:13:59;8.40;99.90
11122;DHT22;5615;49.304;10.576;2022-10-31T01:16:27;8.50;99.90
11122;DHT22;5615;49.304;10.576;2022-10-31T01:18:54;8.40;99.90
11122;DHT22;5615;49.304;10.576;2022-10-31T01:21:23;8.50;99.90
11122;DHT22;5615;49.304;10.576;2022-10-31T01:23:50;8.60;99.90
11122;DHT22;5615;49.304;10.576;2022-10-31T01:26:20;8.50;99.90
11122;DHT22;5615;49.304;10.576;2022-10-31T01:28:49;8.40;99.90
11122;DHT22;5615;49.304;10.576;2022-10-31T01:31:17;8.20;99.90
11122;DHT22;5615;49.304;10.576;2022-10-31T01:33:44;8.30;99.90
11122;DHT22;5615;49.304;10.576;2022-10-31T01:36:13;8.20;99.90
11122;DHT22;5615;49.304;10.576;2022-10-31T01:38:40;8.20;99.90
11122;DHT22;5615;49.304;10.576;2022-10-31T01:41:09;8.10;99.90
11122;DHT22;5615;49.304;10.576;2022-10-31T01:43:45;8.20;99.90
11122;DHT22;5615;49.304;10.576;2022-10-31T01:46:14;8.10;99.90
11122;DHT22;5615;49.304;10.576;2022-10-31T01:48:43;8.00;99.90
11122;DHT22;5615;49.304;10.576;2022-10-31T01:51:12;7.90;99.90
11122;DHT22;5615;49.304;10.576;2022-10-31T01:53:42;7.90;99.90
11122;DHT22;5615;49.304;10.576;2022-10-31T01:56:09;7.90;99.90
11122;DHT22;5615;49.304;10.576;2022-10-31T01:58:36;8.00;99.90
11122;DHT22;5615;49.304;10.576;2022-10-31T02:01:04;8.00;99.90
11122;DHT22;5615;49.304;10.576;2022-10-31T02:03:31;7.90;99.90
11122;DHT22;5615;49.304;10.576;2022-10-31T02:05:58;7.90;99.90
11122;DHT22;5615;49.304;10.576;2022-10-31T02:08:27;7.90;99.90
11122;DHT22;5615;49.304;10.576;2022-10-31T02:10:54;7.90;99.90
11122;DHT22;5615;49.304;10.576;2022-10-31T02:13:22;7.90;99.90
11122;DHT22;5615;49.304;10.576;2022-10-31T02:15:53;8.00;99.90
11122;DHT22;5615;49.304;10.576;2022-10-31T02:18:22;8.00;99.90
11122;DHT22;5615;49.304;10.576;2022-10-31T02:20:57;8.10;99.90
11122;DHT22;5615;49.304;10.576;2022-10-31T02:23:50;8.10;99.90
11122;DHT22;5615;49.304;10.576;2022-10-31T02:26:45;8.10;99.90
11122;DHT22;5615;49.304;10.576;2022-10-31T02:29:35;7.90;99.90
11122;DHT22;5615;49.304;10.576;2022-10-31T02:32:11;7.90;99.90
11122;DHT22;5615;49.304;10.576;2022-10-31T02:34:44;7.80;99.90
11122;DHT22;5615;49.304;10.576;2022-10-31T02:37:21;7.70;99.90
11122;DHT22;5615;49.304;10.576;2022-10-31T02:39:55;7.70;99.90
11122;DHT22;5615;49.304;10.576;2022-10-31T02:42:26;7.70;99.90
11122;DHT22;5615;49.304;10.576;2022-10-31T02:44:58;7.70;99.90
11122;DHT22;5615;49.304;10.576;2022-10-31T02:47:30;7.60;99.90
11122;DHT22;5615;49.304;10.576;2022-10-31T02:50:03;7.80;99.90
11122;DHT22;5615;49.304;10.576;2022-10-31T02:52:33;7.90;99.90
11122;DHT22;5615;49.304;10.576;2022-10-31T02:55:09;7.80;99.90
11122;DHT22;5615;49.304;10.576;2022-10-31T02:57:37;7.80;99.90
11122;DHT22;5615;49.304;10.576;2022-10-31T03:00:08;7.70;99.90
11122;DHT22;5615;49.304;10.576;2022-10-31T03:02:47;8.00;99.90
11122;DHT22;5615;49.304;10.576;2022-10-31T03:05:26;8.00;99.90
11122;DHT22;5615;49.304;10.576;2022-10-31T03:07:58;7.90;99.90
11122;DHT22;5615;49.304;10.576;2022-10-31T03:10:34;7.80;99.90
11122;DHT22;5615;49.304;10.576;2022-10-31T03:13:08;7.90;99.90
11122;DHT22;5615;49.304;10.576;2022-10-31T03:15:38;8.00;99.90
11122;DHT22;5615;49.304;10.576;2022-10-31T03:18:10;8.00;99.90
11122;DHT22;5615;49.304;10.576;2022-10-31T03:20:40;8.00;99.90
11122;DHT22;5615;49.304;10.576;2022-10-31T03:23:11;8.10;99.90
11122;DHT22;5615;49.304;10.576;2022-10-31T03:25:39;8.00;99.90
11122;DHT22;5615;49.304;10.576;2022-10-31T03:28:07;7.90;99.90
11122;DHT22;5615;49.304;10.576;2022-10-31T03:30:36;8.00;99.90
11122;DHT22;5615;49.304;10.576;2022-10-31T03:33:09;7.90;99.90
11122;DHT22;5615;49.304;10.576;2022-10-31T03:35:37;7.90;99.90
11122;DHT22;5615;49.304;10.576;2022-10-31T03:38:08;8.00;99.90
11122;DHT22;5615;49.304;10.576;2022-10-31T03:40:37;8.10;99.90
11122;DHT22;5615;49.304;10.576;2022-10-31T03:43:08;8.10;99.90
11122;DHT22;5615;49.304;10.576;2022-10-31T03:45:40;8.00;99.90
11122;DHT22;5615;49.304;10.576;2022-10-31T03:48:09;7.90;99.90
11122;DHT22;5615;49.304;10.576;2022-10-31T03:50:41;7.90;99.90
11122;DHT22;5615;49.304;10.576;2022-10-31T03:53:13;7.80;99.90
11122;DHT22;5615;49.304;10.576;2022-10-31T03:55:44;7.80;99.90
11122;DHT22;5615;49.304;10.576;2022-10-31T03:58:19;7.90;99.90
11122;DHT22;5615;49.304;10.576;2022-10-31T04:00:50;7.90;99.90
11122;DHT22;5615;49.304;10.576;2022-10-31T04:03:22;7.90;99.90
11122;DHT22;5615;49.304;10.576;2022-10-31T04:05:50;8.00;99.90
11122;DHT22;5615;49.304;10.576;2022-10-31T04:08:21;7.80;99.90
11122;DHT22;5615;49.304;10.576;2022-10-31T04:10:50;7.80;99.90
11122;DHT22;5615;49.304;10.576;2022-10-31T04:13:21;7.80;99.90
11122;DHT22;5615;49.304;10.576;2022-10-31T04:15:51;7.60;99.90
11122;DHT22;5615;49.304;10.576;2022-10-31T04:18:20;7.50;99.90
11122;DHT22;5615;49.304;10.576;2022-10-31T04:20:47;7.50;99.90
11122;DHT22;5615;49.304;10.576;2022-10-31T04:23:18;7.60;99.90
11122;DHT22;5615;49.304;10.576;2022-10-31T04:25:45;7.50;99.90
11122;DHT22;5615;49.304;10.576;2022-10-31T04:28:12;7.50;99.90
11122;DHT22;5615;49.304;10.576;2022-10-31T04:30:38;7.50;99.90
11122;DHT22;5615;49.304;10.576;2022-10-31T04:33:05;7.40;99.90
11122;DHT22;5615;49.304;10.576;2022-10-31T04:35:33;7.30;99.90
11122;DHT22;5615;49.304;10.576;2022-10-31T04:38:00;7.20;99.90
11122;DHT22;5615;49.304;10.576;2022-10-31T04:40:26;7.10;99.90
11122;DHT22;5615;49.304;10.576;2022-10-31T04:42:53;7.00;99.90
11122;DHT22;5615;49.304;10.576;2022-10-31T04:45:20;7.00;99.90
11122;DHT22;5615;49.304;10.576;2022-10-31T04:47:46;7.00;99.90
11122;DHT22;5615;49.304;10.576;2022-10-31T04:50:13;7.10;99.90
11122;DHT22;5615;49.304;10.576;2022-10-31T04:52:42;7.00;99.90
11122;DHT22;5615;49.304;10.576;2022-10-31T04:55:10;7.00;99.90
11122;DHT22;5615;49.304;10.576;2022-10-31T04:57:40;7.00;99.90
11122;DHT22;5615;49.304;10.576;2022-10-31T05:00:08;7.20;99.90
11122;DHT22;5615;49.304;10.576;2022-10-31T05:02:42;7.20;99.90
11122;DHT22;5615;49.304;10.576;2022-10-31T05:05:09;7.10;99.90
11122;DHT22;5615;49.304;10.576;2022-10-31T05:07:38;7.20;99.90
11122;DHT22;5615;49.304;10.576;2022-10-31T05:10:08;7.10;99.90
11122;DHT22;5615;49.304;10.576;2022-10-31T05:12:36;7.00;99.90
11122;DHT22;5615;49.304;10.576;2022-10-31T05:17:30;6.90;99.90
11122;DHT22;5615;49.304;10.576;2022-10-31T05:19:57;6.90;99.90
11122;DHT22;5615;49.304;10.576;2022-10-31T05:22:24;6.80;99.90
11122;DHT22;5615;49.304;10.576;2022-10-31T05:24:50;6.80;99.90
11122;DHT22;5615;49.304;10.576;2022-10-31T05:27:18;6.90;99.90
11122;DHT22;5615;49.304;10.576;2022-10-31T05:29:45;7.00;99.90
11122;DHT22;5615;49.304;10.576;2022-10-31T05:32:11;7.00;99.90
11122;DHT22;5615;49.304;10.576;2022-10-31T05:34:38;6.90;99.90
11122;DHT22;5615;49.304;10.576;2022-10-31T05:37:05;6.90;99.90
11122;DHT22;5615;49.304;10.576;2022-10-31T05:39:31;7.00;99.90
11122;DHT22;5615;49.304;10.576;2022-10-31T05:41:58;7.00;99.90
11122;DHT22;5615;49.304;10.576;2022-10-31T05:44:26;7.00;99.90
11122;DHT22;5615;49.304;10.576;2022-10-31T05:46:53;7.00;99.90
11122;DHT22;5615;49.304;10.576;2022-10-31T05:49:19;6.90;99.90
11122;DHT22;5615;49.304;10.576;2022-10-31T05:51:46;6.90;99.90
11122;DHT22;5615;49.304;10.576;2022-10-31T05:54:13;6.90;99.90
11122;DHT22;5615;49.304;10.576;2022-10-31T05:56:39;6.90;99.90
11122;DHT22;5615;49.304;10.576;2022-10-31T05:59:06;7.00;99.90
11122;DHT22;5615;49.304;10.576;2022-10-31T06:01:34;7.20;99.90
11122;DHT22;5615;49.304;10.576;2022-10-31T06:04:00;7.10;99.90
11122;DHT22;5615;49.304;10.576;2022-10-31T06:06:27;7.00;99.90
11122;DHT22;5615;49.304;10.576;2022-10-31T06:08:54;6.90;99.90
11122;DHT22;5615;49.304;10.576;2022-10-31T06:11:20;6.90;99.90
11122;DHT22;5615;49.304;10.576;2022-10-31T06:13:47;7.00;99.90
11122;DHT22;5615;49.304;10.576;2022-10-31T06:16:14;7.00;99.90
11122;DHT22;5615;49.304;10.576;2022-10-31T06:18:41;6.90;99.90
11122;DHT22;5615;49.304;10.576;2022-10-31T06:21:08;6.90;99.90
11122;DHT22;5615;49.304;10.576;2022-10-31T06:23:35;6.90;99.90
11122;DHT22;5615;49.304;10.576;2022-10-31T06:26:01;7.00;99.90
11122;DHT22;5615;49.304;10.576;2022-10-31T06:28:28;7.10;99.90
11122;DHT22;5615;49.304;10.576;2022-10-31T06:30:55;7.20;99.90
11122;DHT22;5615;49.304;10.576;2022-10-31T06:33:21;7.30;99.90
11122;DHT22;5615;49.304;10.576;2022-10-31T06:35:49;7.30;99.90
11122;DHT22;5615;49.304;10.576;2022-10-31T06:38:16;7.40;99.90
11122;DHT22;5615;49.304;10.576;2022-10-31T06:40:43;7.50;99.90
11122;DHT22;5615;49.304;10.576;2022-10-31T06:43:09;7.60;99.90
11122;DHT22;5615;49.304;10.576;2022-10-31T06:45:36;7.60;99.90
11122;DHT22;5615;49.304;10.576;2022-10-31T06:48:03;7.60;99.90
11122;DHT22;5615;49.304;10.576;2022-10-31T06:50:30;7.70;99.90
11122;DHT22;5615;49.304;10.576;2022-10-31T06:52:58;7.80;99.90
11122;DHT22;5615;49.304;10.576;2022-10-31T06:55:26;7.90;99.90
11122;DHT22;5615;49.304;10.576;2022-10-31T06:57:53;8.00;99.90
11122;DHT22;5615;49.304;10.576;2022-10-31T07:00:20;8.10;99.90
11122;DHT22;5615;49.304;10.576;2022-10-31T07:02:54;8.20;99.90
11122;DHT22;5615;49.304;10.576;2022-10-31T07:05:21;8.30;99.90
11122;DHT22;5615;49.304;10.576;2022-10-31T07:07:52;8.50;99.90
11122;DHT22;5615;49.304;10.576;2022-10-31T07:10:20;8.50;99.90
11122;DHT22;5615;49.304;10.576;2022-10-31T07:12:47;8.60;99.90
11122;DHT22;5615;49.304;10.576;2022-10-31T07:15:13;8.70;99.90
11122;DHT22;5615;49.304;10.576;2022-10-31T07:17:40;8.70;99.90
11122;DHT22;5615;49.304;10.576;2022-10-31T07:20:08;8.80;99.90
11122;DHT22;5615;49.304;10.576;2022-10-31T07:22:35;8.90;99.90
11122;DHT22;5615;49.304;10.576;2022-10-31T07:25:03;9.00;99.90
11122;DHT22;5615;49.304;10.576;2022-10-31T07:27:36;9.10;99.90
11122;DHT22;5615;49.304;10.576;2022-10-31T07:30:04;9.30;99.90
11122;DHT22;5615;49.304;10.576;2022-10-31T07:32:37;9.40;99.90
11122;DHT22;5615;49.304;10.576;2022-10-31T07:35:04;9.50;99.90
11122;DHT22;5615;49.304;10.576;2022-10-31T07:37:31;9.60;99.90
11122;DHT22;5615;49.304;10.576;2022-10-31T07:39:58;9.70;99.90
11122;DHT22;5615;49.304;10.576;2022-10-31T07:42:24;9.90;99.90
11122;DHT22;5615;49.304;10.576;2022-10-31T07:44:52;10.00;99.90
11122;DHT22;5615;49.304;10.576;2022-10-31T07:47:19;10.20;99.90
11122;DHT22;5615;49.304;10.576;2022-10-31T07:49:45;10.20;99.90
11122;DHT22;5615;49.304;10.576;2022-10-31T07:52:12;10.40;99.90
11122;DHT22;5615;49.304;10.576;2022-10-31T07:54:39;10.50;99.90
11122;DHT22;5615;49.304;10.576;2022-10-31T07:57:05;10.70;99.90
11122;DHT22;5615;49.304;10.576;2022-10-31T07:59:32;10.80;99.90
11122;DHT22;5615;49.304;10.576;2022-10-31T08:02:00;10.90;99.90
11122;DHT22;5615;49.304;10.576;2022-10-31T08:04:27;11.10;99.90
11122;DHT22;5615;49.304;10.576;2022-10-31T08:06:53;11.30;99.90
11122;DHT22;5615;49.304;10.576;2022-10-31T08:09:20;11.50;99.90
11122;DHT22;5615;49.304;10.576;2022-10-31T08:11:47;11.70;99.90
11122;DHT22;5615;49.304;10.576;2022-10-31T08:14:13;11.90;99.90
11122;DHT22;5615;49.304;10.576;2022-10-31T08:16:40;12.20;99.90
11122;DHT22;5615;49.304;10.576;2022-10-31T08:19:08;12.40;99.90
11122;DHT22;5615;49.304;10.576;2022-10-31T08:21:34;12.60;99.90
11122;DHT22;5615;49.304;10.576;2022-10-31T08:24:01;12.80;99.90
11122;DHT22;5615;49.304;10.576;2022-10-31T08:26:28;13.00;99.90
11122;DHT22;5615;49.304;10.576;2022-10-31T08:28:54;13.30;99.90
11122;DHT22;5615;49.304;10.576;2022-10-31T08:31:21;13.50;99.90
11122;DHT22;5615;49.304;10.576;2022-10-31T08:33:49;13.80;99.90
11122;DHT22;5615;49.304;10.576;2022-10-31T08:36:17;14.00;99.90
11122;DHT22;5615;49.304;10.576;2022-10-31T08:38:43;14.30;99.90
11122;DHT22;5615;49.304;10.576;2022-10-31T08:41:10;14.60;99.90
11122;DHT22;5615;49.304;10.576;2022-10-31T08:43:37;14.80;99.90
11122;DHT22;5615;49.304;10.576;2022-10-31T08:46:03;15.10;99.90
11122;DHT22;5615;49.304;10.576;2022-10-31T08:48:30;15.50;99.90
11122;DHT22;5615;49.304;10.576;2022-10-31T08:50:58;15.70;99.90
11122;DHT22;5615;49.304;10.576;2022-10-31T08:53:26;15.70;99.90
11122;DHT22;5615;49.304;10.576;2022-10-31T08:55:54;15.80;99.90
11122;DHT22;5615;49.304;10.576;2022-10-31T08:58:22;16.00;99.90
11122;DHT22;5615;49.304;10.576;2022-10-31T09:00:51;16.10;99.90
11122;DHT22;5615;49.304;10.576;2022-10-31T09:03:19;16.30;99.90
11122;DHT22;5615;49.304;10.576;2022-10-31T09:05:46;16.60;99.90
11122;DHT22;5615;49.304;10.576;2022-10-31T09:08:13;17.20;99.90
11122;DHT22;5615;49.304;10.576;2022-10-31T09:10:42;17.70;99.90
11122;DHT22;5615;49.304;10.576;2022-10-31T09:13:11;18.10;99.90
11122;DHT22;5615;49.304;10.576;2022-10-31T09:15:39;18.50;99.90
11122;DHT22;5615;49.304;10.576;2022-10-31T09:18:07;18.80;99.90
11122;DHT22;5615;49.304;10.576;2022-10-31T09:20:35;19.00;99.90
11122;DHT22;5615;49.304;10.576;2022-10-31T09:23:04;19.30;99.90
11122;DHT22;5615;49.304;10.576;2022-10-31T09:25:32;19.60;99.90
11122;DHT22;5615;49.304;10.576;2022-10-31T09:28:02;19.80;99.90
11122;DHT22;5615;49.304;10.576;2022-10-31T09:30:30;20.00;99.90
11122;DHT22;5615;49.304;10.576;2022-10-31T09:32:59;20.40;99.90
11122;DHT22;5615;49.304;10.576;2022-10-31T09:35:26;20.50;99.90
11122;DHT22;5615;49.304;10.576;2022-10-31T09:37:56;20.50;99.90
11122;DHT22;5615;49.304;10.576;2022-10-31T09:40:27;20.60;99.90
11122;DHT22;5615;49.304;10.576;2022-10-31T09:43:03;20.80;99.90
11122;DHT22;5615;49.304;10.576;2022-10-31T09:45:36;21.20;99.90
11122;DHT22;5615;49.304;10.576;2022-10-31T09:48:23;21.10;99.90
11122;DHT22;5615;49.304;10.576;2022-10-31T09:50:52;21.30;99.90
11122;DHT22;5615;49.304;10.576;2022-10-31T09:53:24;21.30;99.90
11122;DHT22;5615;49.304;10.576;2022-10-31T09:55:53;21.40;99.90
11122;DHT22;5615;49.304;10.576;2022-10-31T09:58:24;21.60;99.90
11122;DHT22;5615;49.304;10.576;2022-10-31T10:00:52;21.80;99.90
11122;DHT22;5615;49.304;10.576;2022-10-31T10:03:27;22.10;99.90
11122;DHT22;5615;49.304;10.576;2022-10-31T10:05:59;22.30;99.90
11122;DHT22;5615;49.304;10.576;2022-10-31T10:08:30;22.30;99.90
11122;DHT22;5615;49.304;10.576;2022-10-31T10:11:02;22.40;99.90
11122;DHT22;5615;49.304;10.576;2022-10-31T10:13:41;22.80;99.90
11122;DHT22;5615;49.304;10.576;2022-10-31T10:16:17;22.90;99.90
11122;DHT22;5615;49.304;10.576;2022-10-31T10:18:57;23.00;99.90
11122;DHT22;5615;49.304;10.576;2022-10-31T10:21:35;23.30;99.90
11122;DHT22;5615;49.304;10.576;2022-10-31T10:24:17;23.60;99.90
11122;DHT22;5615;49.304;10.576;2022-10-31T10:26:52;23.50;99.90
11122;DHT22;5615;49.304;10.576;2022-10-31T10:29:31;23.60;99.90
11122;DHT22;5615;49.304;10.576;2022-10-31T10:32:01;23.30;99.90
11122;DHT22;5615;49.304;10.576;2022-10-31T10:34:33;23.50;99.90
11122;DHT22;5615;49.304;10.576;2022-10-31T10:37:07;23.60;99.90
11122;DHT22;5615;49.304;10.576;2022-10-31T10:39:37;23.60;99.90
11122;DHT22;5615;49.304;10.576;2022-10-31T10:42:10;23.70;99.90
11122;DHT22;5615;49.304;10.576;2022-10-31T10:44:57;23.70;99.90
11122;DHT22;5615;49.304;10.576;2022-10-31T10:47:43;24.20;99.90
11122;DHT22;5615;49.304;10.576;2022-10-31T10:50:15;24.40;99.90
11122;DHT22;5615;49.304;10.576;2022-10-31T10:52:48;24.40;99.90
11122;DHT22;5615;49.304;10.576;2022-10-31T10:55:27;24.60;99.90
11122;DHT22;5615;49.304;10.576;2022-10-31T10:57:58;24.70;99.90
11122;DHT22;5615;49.304;10.576;2022-10-31T11:00:29;24.90;99.90
11122;DHT22;5615;49.304;10.576;2022-10-31T11:02:56;25.30;99.90
11122;DHT22;5615;49.304;10.576;2022-10-31T11:05:28;25.40;99.90
11122;DHT22;5615;49.304;10.576;2022-10-31T11:07:56;25.30;99.90
11122;DHT22;5615;49.304;10.576;2022-10-31T11:10:23;25.40;99.90
11122;DHT22;5615;49.304;10.576;2022-10-31T11:13:17;26.00;99.90
11122;DHT22;5615;49.304;10.576;2022-10-31T11:15:55;26.30;99.90
11122;DHT22;5615;49.304;10.576;2022-10-31T11:18:24;26.60;99.90
11122;DHT22;5615;49.304;10.576;2022-10-31T11:20:54;26.80;99.90
11122;DHT22;5615;49.304;10.576;2022-10-31T11:23:22;27.40;99.90
11122;DHT22;5615;49.304;10.576;2022-10-31T11:25:51;27.90;99.90
11122;DHT22;5615;49.304;10.576;2022-10-31T11:28:18;28.10;99.90
11122;DHT22;5615;49.304;10.576;2022-10-31T11:30:47;28.40;99.90
11122;DHT22;5615;49.304;10.576;2022-10-31T11:33:20;28.70;99.40
11122;DHT22;5615;49.304;10.576;2022-10-31T11:35:48;28.80;98.50
11122;DHT22;5615;49.304;10.576;2022-10-31T11:38:19;28.60;97.60
11122;DHT22;5615;49.304;10.576;2022-10-31T11:40:54;28.90;97.70
11122;DHT22;5615;49.304;10.576;2022-10-31T11:43:22;29.20;96.70
11122;DHT22;5615;49.304;10.576;2022-10-31T11:45:49;29.50;96.10
11122;DHT22;5615;49.304;10.576;2022-10-31T11:48:18;29.80;95.00
11122;DHT22;5615;49.304;10.576;2022-10-31T11:50:49;29.80;94.10
11122;DHT22;5615;49.304;10.576;2022-10-31T11:53:17;30.10;94.30
11122;DHT22;5615;49.304;10.576;2022-10-31T11:55:45;30.00;93.70
11122;DHT22;5615;49.304;10.576;2022-10-31T11:58:22;30.30;92.80
11122;DHT22;5615;49.304;10.576;2022-10-31T12:00:51;30.40;91.70
11122;DHT22;5615;49.304;10.576;2022-10-31T12:03:30;30.70;91.60
11122;DHT22;5615;49.304;10.576;2022-10-31T12:06:02;30.50;90.90
11122;DHT22;5615;49.304;10.576;2022-10-31T12:08:32;29.80;90.80
11122;DHT22;5615;49.304;10.576;2022-10-31T12:11:08;29.70;90.90
11122;DHT22;5615;49.304;10.576;2022-10-31T12:13:38;29.70;90.50
11122;DHT22;5615;49.304;10.576;2022-10-31T12:16:13;29.40;90.80
11122;DHT22;5615;49.304;10.576;2022-10-31T12:18:53;29.20;90.80
11122;DHT22;5615;49.304;10.576;2022-10-31T12:21:39;28.30;91.50
11122;DHT22;5615;49.304;10.576;2022-10-31T12:24:18;27.70;92.10
11122;DHT22;5615;49.304;10.576;2022-10-31T12:26:54;26.70;92.30
11122;DHT22;5615;49.304;10.576;2022-10-31T12:29:40;26.20;93.20
11122;DHT22;5615;49.304;10.576;2022-10-31T12:32:24;25.60;93.30
11122;DHT22;5615;49.304;10.576;2022-10-31T12:35:22;25.10;94.10
11122;DHT22;5615;49.304;10.576;2022-10-31T12:38:05;24.80;93.80
11122;DHT22;5615;49.304;10.576;2022-10-31T12:40:47;24.40;93.80
11122;DHT22;5615;49.304;10.576;2022-10-31T12:43:28;24.00;93.70
11122;DHT22;5615;49.304;10.576;2022-10-31T12:45:57;23.60;94.80
11122;DHT22;5615;49.304;10.576;2022-10-31T12:48:38;23.40;95.30
11122;DHT22;5615;49.304;10.576;2022-10-31T12:51:14;23.40;95.90
11122;DHT22;5615;49.304;10.576;2022-10-31T12:53:56;23.30;96.40
11122;DHT22;5615;49.304;10.576;2022-10-31T12:56:36;23.20;96.80
11122;DHT22;5615;49.304;10.576;2022-10-31T12:59:09;23.30;97.20
11122;DHT22;5615;49.304;10.576;2022-10-31T13:01:41;23.50;97.50
11122;DHT22;5615;49.304;10.576;2022-10-31T13:04:15;23.60;97.50
11122;DHT22;5615;49.304;10.576;2022-10-31T13:06:48;23.80;96.90
11122;DHT22;5615;49.304;10.576;2022-10-31T13:09:17;24.20;96.80
11122;DHT22;5615;49.304;10.576;2022-10-31T13:11:50;24.70;96.20
11122;DHT22;5615;49.304;10.576;2022-10-31T13:14:25;25.10;95.80
11122;DHT22;5615;49.304;10.576;2022-10-31T13:16:54;25.80;95.50
11122;DHT22;5615;49.304;10.576;2022-10-31T13:19:23;26.50;94.80
11122;DHT22;5615;49.304;10.576;2022-10-31T13:21:58;26.60;94.20
11122;DHT22;5615;49.304;10.576;2022-10-31T13:24:32;26.70;94.50
11122;DHT22;5615;49.304;10.576;2022-10-31T13:27:03;26.60;94.30
11122;DHT22;5615;49.304;10.576;2022-10-31T13:29:33;26.70;94.40
11122;DHT22;5615;49.304;10.576;2022-10-31T13:32:04;26.60;94.10
11122;DHT22;5615;49.304;10.576;2022-10-31T13:34:34;26.60;94.20
11122;DHT22;5615;49.304;10.576;2022-10-31T13:37:12;26.40;94.40
11122;DHT22;5615;49.304;10.576;2022-10-31T13:39:50;26.40;94.50
11122;DHT22;5615;49.304;10.576;2022-10-31T13:42:37;26.10;94.90
11122;DHT22;5615;49.304;10.576;2022-10-31T13:45:12;25.60;95.00
11122;DHT22;5615;49.304;10.576;2022-10-31T13:47:41;25.10;95.90
11122;DHT22;5615;49.304;10.576;2022-10-31T13:50:19;25.10;95.90
11122;DHT22;5615;49.304;10.576;2022-10-31T13:52:47;24.90;96.30
11122;DHT22;5615;49.304;10.576;2022-10-31T13:55:37;25.00;96.70
11122;DHT22;5615;49.304;10.576;2022-10-31T13:58:04;24.80;96.60
11122;DHT22;5615;49.304;10.576;2022-10-31T14:00:32;24.40;97.50
11122;DHT22;5615;49.304;10.576;2022-10-31T14:03:00;24.20;97.50
11122;DHT22;5615;49.304;10.576;2022-10-31T14:05:30;24.00;97.90
11122;DHT22;5615;49.304;10.576;2022-10-31T14:08:01;23.70;98.60
11122;DHT22;5615;49.304;10.576;2022-10-31T14:10:31;23.20;99.30
11122;DHT22;5615;49.304;10.576;2022-10-31T14:13:06;22.90;99.90
11122;DHT22;5615;49.304;10.576;2022-10-31T14:15:36;22.50;99.90
11122;DHT22;5615;49.304;10.576;2022-10-31T14:18:06;22.30;99.90
11122;DHT22;5615;49.304;10.576;2022-10-31T14:20:38;22.10;99.90
11122;DHT22;5615;49.304;10.576;2022-10-31T14:23:33;22.10;99.90
11122;DHT22;5615;49.304;10.576;2022-10-31T14:26:17;22.20;99.90
11122;DHT22;5615;49.304;10.576;2022-10-31T14:28:45;22.00;99.90
11122;DHT22;5615;49.304;10.576;2022-10-31T14:31:28;21.70;99.90
11122;DHT22;5615;49.304;10.576;2022-10-31T14:33:57;21.40;99.90
11122;DHT22;5615;49.304;10.576;2022-10-31T14:36:31;21.20;99.90
11122;DHT22;5615;49.304;10.576;2022-10-31T14:39:06;21.00;99.90
11122;DHT22;5615;49.304;10.576;2022-10-31T14:41:55;20.80;99.90
11122;DHT22;5615;49.304;10.576;2022-10-31T14:47:31;20.60;99.90
11122;DHT22;5615;49.304;10.576;2022-10-31T14:50:25;20.50;99.90
11122;DHT22;5615;49.304;10.576;2022-10-31T14:52:57;20.40;99.90
11122;DHT22;5615;49.304;10.576;2022-10-31T14:55:27;20.30;99.90
11122;DHT22;5615;49.304;10.576;2022-10-31T14:57:57;20.30;99.90
11122;DHT22;5615;49.304;10.576;2022-10-31T15:00:26;20.60;99.90
11122;DHT22;5615;49.304;10.576;2022-10-31T15:03:04;22.60;99.90
11122;DHT22;5615;49.304;10.576;2022-10-31T15:05:34;22.40;99.90
11122;DHT22;5615;49.304;10.576;2022-10-31T15:08:01;21.60;99.90
11122;DHT22;5615;49.304;10.576;2022-10-31T15:10:31;21.20;99.90
11122;DHT22;5615;49.304;10.576;2022-10-31T15:13:09;22.40;99.90
11122;DHT22;5615;49.304;10.576;2022-10-31T15:15:36;25.00;99.90
11122;DHT22;5615;49.304;10.576;2022-10-31T15:18:04;26.10;99.90
11122;DHT22;5615;49.304;10.576;2022-10-31T15:20:36;27.20;99.90
11122;DHT22;5615;49.304;10.576;2022-10-31T15:23:04;27.70;98.70
11122;DHT22;5615;49.304;10.576;2022-10-31T15:25:34;26.20;99.60
11122;DHT22;5615;49.304;10.576;2022-10-31T15:28:01;24.50;99.90
11122;DHT22;5615;49.304;10.576;2022-10-31T15:30:29;23.30;99.90
11122;DHT22;5615;49.304;10.576;2022-10-31T15:32:55;22.40;99.90
11122;DHT22;5615;49.304;10.576;2022-10-31T15:35:24;21.80;99.90
11122;DHT22;5615;49.304;10.576;2022-10-31T15:37:52;21.30;99.90
11122;DHT22;5615;49.304;10.576;2022-10-31T15:40:22;20.90;99.90
11122;DHT22;5615;49.304;10.576;2022-10-31T15:42:53;20.40;99.90
11122;DHT22;5615;49.304;10.576;2022-10-31T15:45:23;20.20;99.90
11122;DHT22;5615;49.304;10.576;2022-10-31T15:47:54;19.90;99.90
11122;DHT22;5615;49.304;10.576;2022-10-31T15:50:26;19.80;99.90
11122;DHT22;5615;49.304;10.576;2022-10-31T15:52:54;19.50;99.90
11122;DHT22;5615;49.304;10.576;2022-10-31T15:55:22;19.20;99.90
11122;DHT22;5615;49.304;10.576;2022-10-31T15:57:53;18.90;99.90
11122;DHT22;5615;49.304;10.576;2022-10-31T16:00:24;18.60;99.90
11122;DHT22;5615;49.304;10.576;2022-10-31T16:03:02;18.40;99.90